Time;durP1;ratioP1;P1;durP2;ratioP2;P2;SDS_P1;SDS_P2;PMS_P1;PMS_P2;Temp;Humidity;BMP_temperature;BMP_pressure;BME280_temperature;BME280_humidity;BME280_pressure;Samples;Min_cycle;Max_cycle;Signal;HPM_P1;HPM_P2
2022/11/19 00:02:21;;;;;;;2.50;0.80;;;;;;;;;;5067606;28;20199;-83
2022/11/19 00:04:47;;;;;;;0.38;0.38;;;6.70;99.90;;;;;;5085766;28;20290;-84
2022/11/19 00:07:14;;;;;;;1.20;1.10;;;6.70;99.90;;;;;;5073877;28;20191;-82
2022/11/19 00:09:42;;;;;;;0.65;0.60;;;6.80;99.90;;;;;;5075537;28;20640;-82
2022/11/19 00:14:54;;;;;;;0.70;0.50;;;6.50;99.90;;;;;;5070535;28;20605;-82
2022/11/19 00:17:21;;;;;;;1.77;1.23;;;6.70;99.90;;;;;;5086497;28;20226;-82
2022/11/19 00:19:47;;;;;;;1.17;1.05;;;6.70;99.90;;;;;;5079312;28;20207;-82
2022/11/19 00:22:14;;;;;;;1.92;1.33;;;6.80;99.90;;;;;;5076895;28;20202;-82
2022/11/19 00:24:43;;;;;;;0.43;0.40;;;6.70;99.90;;;;;;5085468;28;20205;-82
2022/11/19 00:27:09;;;;;;;1.25;1.15;;;6.80;99.90;;;;;;5080626;28;20203;-81
2022/11/19 00:29:36;;;;;;;1.02;0.52;;;6.60;99.90;;;;;;5067433;28;20575;-81
2022/11/19 00:32:03;;;;;;;0.95;0.35;;;6.80;99.90;;;;;;5078327;28;20322;-81
2022/11/19 00:34:30;;;;;;;0.82;0.55;;;6.80;99.90;;;;;;5082987;28;20293;-81
2022/11/19 00:36:57;;;;;;;0.60;0.57;;;6.80;99.90;;;;;;5086362;28;20318;-81
2022/11/19 00:39:24;;;;;;;0.40;0.30;;;6.80;99.90;;;;;;5067246;28;20278;-81
2022/11/19 00:41:52;;;;;;;0.85;0.77;;;6.80;99.90;;;;;;5075350;28;20282;-82
2022/11/19 00:44:18;;;;;;;0.80;0.80;;;6.80;99.90;;;;;;5082325;28;20281;-82
2022/11/19 00:46:45;;;;;;;1.40;0.90;;;6.70;99.90;;;;;;5080317;28;20195;-81
2022/11/19 00:49:12;;;;;;;0.57;0.40;;;6.80;99.90;;;;;;5080608;28;20205;-82
2022/11/19 00:51:39;;;;;;;0.50;0.50;;;6.80;99.90;;;;;;5083847;28;20203;-82
2022/11/19 00:54:06;;;;;;;0.38;0.35;;;6.80;99.90;;;;;;5074278;28;20648;-81
2022/11/19 00:56:32;;;;;;;2.15;0.63;;;6.80;99.90;;;;;;5080536;28;20641;-82
2022/11/19 00:59:00;;;;;;;0.88;0.85;;;6.80;99.90;;;;;;5079441;28;20208;-81
2022/11/19 01:01:27;;;;;;;1.95;0.68;;;6.80;99.90;;;;;;5074882;28;20394;-81
2022/11/19 01:03:56;;;;;;;4.88;2.08;;;6.80;99.90;;;;;;5069549;28;20288;-81
2022/11/19 01:06:24;;;;;;;2.35;1.45;;;6.80;99.90;;;;;;5076972;28;20198;-81
2022/11/19 01:08:53;;;;;;;2.45;1.85;;;6.90;99.90;;;;;;5069108;28;20241;-82
2022/11/19 01:11:21;;;;;;;2.40;1.67;;;6.90;99.90;;;;;;5084480;28;20317;-81
2022/11/19 01:13:48;;;;;;;3.83;1.47;;;6.90;99.90;;;;;;5082263;28;21081;-81
2022/11/19 01:16:19;;;;;;;0.47;0.47;;;6.80;99.90;;;;;;5068362;28;20624;-82
2022/11/19 01:18:47;;;;;;;1.08;0.98;;;6.80;99.90;;;;;;5086409;28;20720;-81
2022/11/19 01:21:15;;;;;;;1.85;0.73;;;6.70;99.90;;;;;;5072237;28;20199;-81
2022/11/19 01:23:42;;;;;;;3.90;1.80;;;6.70;99.90;;;;;;5085506;28;20591;-81
2022/11/19 01:26:11;;;;;;;1.50;0.90;;;6.80;99.90;;;;;;5086188;28;20640;-81
2022/11/19 01:28:38;;;;;;;1.33;1.05;;;6.80;99.90;;;;;;5066758;28;21098;-81
2022/11/19 01:31:07;;;;;;;0.60;0.50;;;6.80;99.90;;;;;;5079852;28;20624;-81
2022/11/19 01:33:36;;;;;;;2.23;0.87;;;6.80;99.90;;;;;;5073540;28;20205;-81
2022/11/19 01:36:06;;;;;;;0.63;0.63;;;6.80;99.90;;;;;;5074141;28;20757;-82
2022/11/19 01:38:33;;;;;;;1.27;1.10;;;6.80;99.90;;;;;;5066850;28;21107;-82
2022/11/19 01:41:01;;;;;;;0.73;0.60;;;6.80;99.90;;;;;;5077720;28;20720;-81
2022/11/19 01:43:41;;;;;;;0.53;0.40;;;6.80;99.90;;;;;;5080790;28;21021;-81
2022/11/19 01:46:08;;;;;;;2.03;0.90;;;6.70;99.90;;;;;;5085623;28;20617;-81
2022/11/19 01:48:40;;;;;;;0.50;0.40;;;6.70;99.90;;;;;;5078195;28;20203;-82
2022/11/19 01:51:12;;;;;;;0.80;0.43;;;6.80;99.90;;;;;;5074082;28;21120;-82
2022/11/19 01:53:40;;;;;;;0.75;0.60;;;6.70;99.90;;;;;;5078730;28;20979;-81
2022/11/19 01:56:08;;;;;;;1.07;0.43;;;6.50;99.90;;;;;;5090105;28;20560;-81
2022/11/19 01:58:38;;;;;;;1.33;0.95;;;6.40;99.90;;;;;;5084943;28;20948;-81
2022/11/19 02:01:06;;;;;;;0.40;0.30;;;6.80;99.90;;;;;;5079414;28;20198;-82
2022/11/19 02:03:36;;;;;;;0.30;0.20;;;6.40;99.90;;;;;;5083192;28;20290;-81
2022/11/19 02:06:03;;;;;;;1.63;0.55;;;6.70;99.90;;;;;;5086753;28;20369;-81
2022/11/19 02:08:42;;;;;;;0.73;0.65;;;6.60;99.90;;;;;;5088241;28;20740;-81
2022/11/19 02:11:42;;;;;;;0.93;0.50;;;6.50;99.90;;;;;;5089874;28;20291;-81
2022/11/19 02:14:23;;;;;;;0.80;0.70;;;6.40;99.90;;;;;;5082337;28;20218;-81
2022/11/19 02:16:57;;;;;;;2.83;0.73;;;6.70;99.90;;;;;;5086119;28;20187;-82
2022/11/19 02:20:06;;;;;;;2.10;0.70;;;6.50;99.90;;;;;;5076794;28;20214;-81
2022/11/19 02:22:54;;;;;;;0.95;0.65;;;6.50;99.90;;;;;;5079300;28;20257;-82
2022/11/19 02:25:31;;;;;;;0.47;0.47;;;6.60;99.90;;;;;;5086037;28;20211;-82
2022/11/19 02:28:23;;;;;;;1.65;1.55;;;6.40;99.90;;;;;;5076008;28;20625;-81
2022/11/19 02:30:54;;;;;;;0.40;0.40;;;6.50;99.90;;;;;;5085441;28;20238;-81
2022/11/19 02:33:28;;;;;;;0.50;0.50;;;6.50;99.90;;;;;;5077390;28;20199;-81
2022/11/19 02:35:59;;;;;;;0.80;0.60;;;6.40;99.90;;;;;;5078615;28;20268;-81
2022/11/19 02:38:31;;;;;;;0.68;0.68;;;6.50;99.90;;;;;;5070129;28;20282;-82
2022/11/19 02:41:32;;;;;;;0.52;0.52;;;6.60;99.90;;;;;;5077395;28;20963;-81
2022/11/19 02:44:57;;;;;;;0.60;0.60;;;6.60;99.90;;;;;;5084561;28;20201;-81
2022/11/19 02:46:49;;;;;;;2.28;0.65;;;6.60;99.90;;;;;;5068830;28;20233;-82
2022/11/19 02:49:19;;;;;;;3.42;1.13;;;6.60;99.90;;;;;;5086667;28;20198;-81
2022/11/19 02:51:47;;;;;;;0.68;0.68;;;6.60;99.90;;;;;;5083858;28;20595;-82
2022/11/19 02:54:16;;;;;;;0.88;0.80;;;6.50;99.90;;;;;;5088251;28;20570;-81
2022/11/19 02:56:48;;;;;;;0.93;0.88;;;6.60;99.90;;;;;;5085664;28;20214;-81
2022/11/19 03:04:51;;;;;;;1.53;1.43;;;6.70;99.90;;;;;;5088463;28;20210;-81
2022/11/19 03:07:19;;;;;;;1.05;0.95;;;6.60;99.90;;;;;;5073560;28;21294;-81
2022/11/19 03:09:52;;;;;;;1.10;0.88;;;6.70;99.90;;;;;;5077248;28;20202;-82
2022/11/19 03:12:25;;;;;;;1.37;0.67;;;6.70;99.90;;;;;;5086444;28;20745;-81
2022/11/19 03:17:58;;;;;;;0.70;0.70;;;6.70;99.90;;;;;;5081073;28;20567;-81
2022/11/19 03:20:31;;;;;;;0.98;0.95;;;6.90;99.90;;;;;;5080064;28;20207;-82
2022/11/19 03:23:02;;;;;;;0.80;0.80;;;6.70;99.90;;;;;;5070776;28;20210;-81
2022/11/19 03:25:34;;;;;;;0.65;0.57;;;6.70;99.90;;;;;;5079984;28;20278;-81
2022/11/19 03:28:07;;;;;;;0.40;0.32;;;6.70;99.90;;;;;;5080811;28;20840;-81
2022/11/19 03:30:35;;;;;;;1.52;1.42;;;6.70;99.90;;;;;;5087037;28;20218;-82
2022/11/19 03:33:08;;;;;;;1.20;0.80;;;6.60;99.90;;;;;;5073442;28;20202;-82
2022/11/19 03:35:39;;;;;;;0.80;0.80;;;6.70;99.90;;;;;;5081760;28;20753;-82
2022/11/19 03:38:10;;;;;;;1.10;0.95;;;6.60;99.90;;;;;;5080999;28;20195;-81
2022/11/19 03:40:40;;;;;;;0.52;0.38;;;6.90;99.90;;;;;;5069267;28;20881;-81
2022/11/19 03:43:11;;;;;;;1.40;0.50;;;6.70;99.90;;;;;;5084413;28;20194;-80
2022/11/19 03:45:43;;;;;;;0.63;0.63;;;6.70;99.90;;;;;;5086915;28;20202;-82
2022/11/19 03:48:12;;;;;;;1.00;0.80;;;6.90;99.90;;;;;;5077996;28;20621;-81
2022/11/19 03:50:49;;;;;;;0.65;0.65;;;6.80;99.90;;;;;;5069353;28;20590;-81
2022/11/19 03:53:17;;;;;;;1.15;0.65;;;6.80;99.90;;;;;;5072702;28;20217;-81
2022/11/19 03:55:49;;;;;;;0.43;0.43;;;6.80;99.90;;;;;;5087381;28;20202;-81
2022/11/19 03:58:16;;;;;;;1.00;0.88;;;6.80;99.90;;;;;;5088154;28;20666;-81
2022/11/19 04:00:43;;;;;;;1.20;0.77;;;6.90;99.90;;;;;;5086237;28;20202;-83
2022/11/19 04:03:11;;;;;;;0.63;0.63;;;6.80;99.90;;;;;;5070964;28;20659;-81
2022/11/19 04:05:38;;;;;;;0.87;0.87;;;6.80;99.90;;;;;;5087745;28;20612;-82
2022/11/19 04:08:05;;;;;;;0.50;0.50;;;6.80;99.90;;;;;;5084742;28;20727;-83
2022/11/19 04:10:32;;;;;;;0.80;0.70;;;6.80;99.90;;;;;;5067710;28;20755;-82
2022/11/19 04:12:58;;;;;;;0.73;0.73;;;7.50;99.90;;;;;;5085371;28;20628;-82
2022/11/19 04:15:25;;;;;;;1.17;1.00;;;6.70;99.90;;;;;;5077022;28;20203;-80
2022/11/19 04:17:52;;;;;;;0.52;0.52;;;6.80;99.90;;;;;;5081596;28;20635;-81
2022/11/19 04:20:20;;;;;;;0.60;0.60;;;6.80;99.90;;;;;;5079857;28;20194;-81
2022/11/19 04:22:50;;;;;;;0.65;0.65;;;6.80;99.90;;;;;;5083649;28;20723;-81
2022/11/19 04:25:17;;;;;;;0.70;0.70;;;6.80;99.90;;;;;;5087176;28;20296;-82
2022/11/19 04:27:45;;;;;;;0.63;0.63;;;6.90;99.90;;;;;;5074082;28;20274;-81
2022/11/19 04:30:13;;;;;;;1.95;1.15;;;6.80;99.90;;;;;;5075785;28;20207;-81
2022/11/19 04:32:40;;;;;;;1.25;1.20;;;6.90;99.90;;;;;;5076329;28;20282;-81
2022/11/19 04:35:07;;;;;;;1.67;1.17;;;6.90;99.90;;;;;;5094160;28;20202;-82
2022/11/19 04:37:35;;;;;;;1.08;0.45;;;6.80;99.90;;;;;;5086652;28;20191;-81
2022/11/19 04:40:02;;;;;;;0.32;0.32;;;6.80;99.90;;;;;;5073043;28;20227;-81
2022/11/19 04:42:29;;;;;;;0.98;0.32;;;6.70;99.90;;;;;;5081695;28;20677;-81
2022/11/19 04:44:56;;;;;;;0.40;0.40;;;6.80;99.90;;;;;;5079638;28;20613;-81
2022/11/19 04:47:22;;;;;;;0.80;0.80;;;6.80;99.90;;;;;;5065967;28;20199;-81
2022/11/19 04:49:49;;;;;;;0.60;0.40;;;6.90;99.90;;;;;;5067927;28;20198;-82
2022/11/19 04:52:16;;;;;;;0.98;0.98;;;6.80;99.90;;;;;;5074448;28;20222;-81
2022/11/19 04:54:44;;;;;;;0.80;0.70;;;6.80;99.90;;;;;;5078210;28;20677;-81
2022/11/19 04:57:11;;;;;;;0.70;0.70;;;6.80;99.90;;;;;;5068033;28;20237;-81
2022/11/19 04:59:37;;;;;;;0.50;0.40;;;6.80;99.90;;;;;;5076239;28;20297;-81
2022/11/19 05:02:04;;;;;;;0.85;0.85;;;6.70;99.90;;;;;;5080526;28;20634;-81
2022/11/19 05:04:31;;;;;;;0.63;0.40;;;6.70;99.90;;;;;;5079236;28;20209;-83
2022/11/19 05:06:58;;;;;;;0.43;0.40;;;6.70;99.90;;;;;;5082961;28;20210;-81
2022/11/19 05:09:25;;;;;;;0.90;0.90;;;6.70;99.90;;;;;;5067266;28;20195;-81
2022/11/19 05:11:53;;;;;;;2.47;0.88;;;6.70;99.90;;;;;;5073556;28;20763;-81
2022/11/19 05:14:20;;;;;;;0.65;0.65;;;6.80;99.90;;;;;;5086312;28;20195;-81
2022/11/19 05:16:46;;;;;;;1.30;1.20;;;6.70;99.90;;;;;;5090025;28;20193;-81
2022/11/19 05:19:13;;;;;;;1.00;0.90;;;6.30;99.90;;;;;;5090159;28;20289;-82
2022/11/19 05:21:40;;;;;;;1.10;0.77;;;6.80;99.90;;;;;;5077958;28;20280;-81
2022/11/19 05:24:08;;;;;;;1.43;1.00;;;6.70;99.90;;;;;;5090226;28;20220;-81
2022/11/19 05:26:35;;;;;;;1.07;0.77;;;6.80;99.90;;;;;;5079800;28;20724;-81
2022/11/19 05:29:03;;;;;;;0.70;0.70;;;6.70;99.90;;;;;;5090409;28;20973;-81
2022/11/19 05:31:30;;;;;;;1.27;1.05;;;6.70;99.90;;;;;;5071436;28;20746;-82
2022/11/19 05:33:57;;;;;;;0.67;0.67;;;6.80;99.90;;;;;;5076445;28;20195;-81
2022/11/19 05:36:23;;;;;;;1.30;1.30;;;6.70;99.90;;;;;;5078596;28;20702;-81
2022/11/19 05:38:50;;;;;;;1.37;1.07;;;6.80;99.90;;;;;;5091172;28;20611;-81
2022/11/19 05:41:17;;;;;;;0.63;0.63;;;6.80;99.90;;;;;;5075857;28;20617;-81
2022/11/19 05:43:44;;;;;;;1.33;0.73;;;6.70;99.90;;;;;;5089623;28;20624;-81
2022/11/19 05:46:12;;;;;;;0.70;0.70;;;6.80;99.90;;;;;;5081266;28;20625;-81
2022/11/19 05:48:39;;;;;;;0.70;0.40;;;6.70;99.90;;;;;;5070753;28;20613;-81
2022/11/19 05:51:06;;;;;;;0.83;0.47;;;6.70;99.90;;;;;;5076671;28;20652;-81
2022/11/19 05:53:32;;;;;;;0.50;0.50;;;6.70;99.90;;;;;;5088604;28;20628;-82
2022/11/19 05:55:59;;;;;;;1.07;0.97;;;6.70;99.90;;;;;;5090382;28;20632;-81
2022/11/19 05:58:26;;;;;;;0.50;0.30;;;6.70;99.90;;;;;;5071654;28;20627;-82
2022/11/19 06:00:55;;;;;;;0.97;0.67;;;6.80;99.90;;;;;;5089354;28;20635;-81
2022/11/19 06:03:23;;;;;;;1.70;0.83;;;6.70;99.90;;;;;;5076855;28;20731;-81
2022/11/19 06:05:50;;;;;;;0.73;0.73;;;6.80;99.90;;;;;;5073066;28;20992;-82
2022/11/19 06:08:16;;;;;;;2.00;0.87;;;6.80;99.90;;;;;;5074906;28;20621;-81
2022/11/19 06:10:43;;;;;;;0.83;0.83;;;6.70;99.90;;;;;;5086736;28;21056;-83
2022/11/19 06:13:10;;;;;;;2.20;1.40;;;6.70;99.90;;;;;;5080458;28;20621;-82
2022/11/19 06:15:37;;;;;;;1.23;1.13;;;6.70;99.90;;;;;;5075012;28;20744;-81
2022/11/19 06:18:04;;;;;;;1.37;0.83;;;6.70;99.90;;;;;;5079877;28;20712;-82
2022/11/19 06:20:32;;;;;;;0.70;0.70;;;6.80;99.90;;;;;;5071892;28;20992;-81
2022/11/19 06:22:59;;;;;;;0.93;0.70;;;6.80;99.90;;;;;;5071162;28;20628;-83
2022/11/19 06:25:26;;;;;;;0.57;0.57;;;6.80;99.90;;;;;;5088818;28;20636;-82
2022/11/19 06:27:52;;;;;;;0.53;0.53;;;6.60;99.90;;;;;;5074604;28;20613;-82
2022/11/19 06:30:19;;;;;;;0.80;0.80;;;6.80;99.90;;;;;;5090523;28;20739;-81
2022/11/19 06:32:46;;;;;;;1.60;0.73;;;6.80;99.90;;;;;;5077203;28;20760;-81
2022/11/19 06:35:13;;;;;;;1.00;0.50;;;6.80;99.90;;;;;;5080162;28;21260;-81
2022/11/19 06:37:41;;;;;;;4.40;1.40;;;6.80;99.90;;;;;;5074743;28;20628;-82
2022/11/19 06:40:09;;;;;;;0.40;0.40;;;6.80;99.90;;;;;;5084727;28;20632;-82
2022/11/19 06:42:36;;;;;;;0.50;0.50;;;6.70;99.90;;;;;;5083071;28;20609;-82
2022/11/19 06:45:03;;;;;;;0.55;0.50;;;6.70;99.90;;;;;;5084433;28;20656;-82
2022/11/19 06:47:30;;;;;;;1.70;1.07;;;6.70;99.90;;;;;;5087091;28;20203;-81
2022/11/19 06:49:57;;;;;;;0.57;0.57;;;6.70;99.90;;;;;;5069802;28;20630;-82
2022/11/19 06:52:24;;;;;;;1.00;1.00;;;6.80;99.90;;;;;;5081670;28;21255;-81
2022/11/19 06:54:52;;;;;;;1.00;0.90;;;6.60;99.90;;;;;;5085411;28;20628;-82
2022/11/19 06:57:19;;;;;;;0.50;0.40;;;6.70;99.90;;;;;;5087058;28;20635;-82
2022/11/19 06:59:46;;;;;;;1.07;0.50;;;6.30;99.90;;;;;;5084273;28;20203;-82
2022/11/19 07:02:13;;;;;;;1.55;1.45;;;6.50;99.90;;;;;;5074754;28;20756;-82
2022/11/19 07:04:39;;;;;;;1.07;1.07;;;6.60;99.90;;;;;;5079629;28;20223;-83
2022/11/19 07:07:07;;;;;;;1.27;1.17;;;6.60;99.90;;;;;;5086212;28;20859;-81
2022/11/19 07:09:33;;;;;;;1.25;0.80;;;6.70;99.90;;;;;;5087483;28;20291;-82
2022/11/19 07:12:01;;;;;;;4.90;1.37;;;6.60;99.90;;;;;;5079122;28;20246;-82
2022/11/19 07:14:28;;;;;;;0.43;0.43;;;6.70;99.90;;;;;;5080943;28;20617;-81
2022/11/19 07:16:56;;;;;;;0.83;0.57;;;6.70;99.90;;;;;;5075588;28;20667;-81
2022/11/19 07:19:23;;;;;;;0.95;0.80;;;6.70;99.90;;;;;;5081381;28;21032;-81
2022/11/19 07:21:49;;;;;;;1.52;1.25;;;6.60;99.90;;;;;;5078935;28;20207;-82
2022/11/19 07:24:18;;;;;;;2.38;1.08;;;6.60;99.90;;;;;;5085598;28;20200;-81
2022/11/19 07:26:44;;;;;;;1.13;1.02;;;6.60;99.90;;;;;;5088498;28;20709;-82
2022/11/19 07:29:14;;;;;;;1.00;0.67;;;6.50;99.90;;;;;;5071909;28;20199;-82
2022/11/19 07:31:41;;;;;;;1.90;0.70;;;6.50;99.90;;;;;;5078629;28;21007;-81
2022/11/19 07:34:09;;;;;;;1.00;0.90;;;6.50;99.90;;;;;;5085841;28;21064;-82
2022/11/19 07:36:36;;;;;;;0.73;0.73;;;6.50;99.90;;;;;;5085022;28;20969;-82
2022/11/19 07:39:04;;;;;;;1.90;0.60;;;6.50;99.90;;;;;;5068067;28;20626;-81
2022/11/19 07:44:16;;;;;;;0.70;0.70;;;6.80;99.90;;;;;;5087415;28;20617;-81
2022/11/19 07:46:43;;;;;;;1.50;0.57;;;6.80;99.90;;;;;;5085422;28;20635;-81
2022/11/19 07:49:10;;;;;;;1.70;0.50;;;6.60;99.90;;;;;;5072244;28;20636;-81
2022/11/19 07:51:37;;;;;;;1.25;0.60;;;6.80;99.90;;;;;;5069012;28;20660;-81
2022/11/19 07:54:04;;;;;;;0.40;0.40;;;6.80;99.90;;;;;;5073169;28;20286;-82
2022/11/19 07:56:31;;;;;;;0.50;0.50;;;6.80;99.90;;;;;;5069022;28;20728;-81
2022/11/19 07:58:59;;;;;;;1.05;0.95;;;6.90;99.90;;;;;;5071024;28;20840;-81
2022/11/19 08:01:28;;;;;;;1.13;0.90;;;7.00;99.90;;;;;;5085522;28;20350;-81
2022/11/19 08:03:55;;;;;;;1.23;0.50;;;6.90;99.90;;;;;;5075957;28;20631;-81
2022/11/19 08:06:23;;;;;;;1.53;0.77;;;6.90;99.90;;;;;;5075433;28;20621;-81
2022/11/19 08:08:49;;;;;;;0.53;0.50;;;6.90;99.90;;;;;;5077400;28;20646;-81
2022/11/19 08:11:17;;;;;;;0.80;0.70;;;7.00;99.90;;;;;;5087125;28;20702;-81
2022/11/19 08:13:44;;;;;;;0.53;0.53;;;6.90;99.90;;;;;;5087464;28;20625;-82
2022/11/19 08:16:12;;;;;;;1.13;0.80;;;7.10;99.90;;;;;;5087754;28;20631;-81
2022/11/19 08:18:39;;;;;;;1.10;0.70;;;7.20;99.90;;;;;;5087166;28;20629;-81
2022/11/19 08:21:08;;;;;;;0.70;0.70;;;7.10;99.90;;;;;;5085379;28;20723;-81
2022/11/19 08:23:36;;;;;;;0.40;0.40;;;7.10;99.90;;;;;;5071577;28;20624;-81
2022/11/19 08:26:03;;;;;;;0.40;0.40;;;7.20;99.90;;;;;;5087180;28;20635;-81
2022/11/19 08:28:30;;;;;;;0.93;0.60;;;7.20;99.90;;;;;;5067937;28;21274;-82
2022/11/19 08:31:04;;;;;;;1.70;1.10;;;7.30;99.90;;;;;;5068261;28;20731;-81
2022/11/19 08:33:31;;;;;;;2.40;2.07;;;7.30;99.90;;;;;;5074774;28;21017;-81
2022/11/19 08:35:59;;;;;;;1.07;0.63;;;7.40;99.90;;;;;;5092384;28;21236;-82
2022/11/19 08:38:26;;;;;;;2.00;1.67;;;;;;;;;;5068105;28;20964;-82
2022/11/19 08:42:58;;;;;;;5.40;0.80;;;7.40;99.90;;;;;;5082737;28;20621;-82
2022/11/19 08:43:39;;;;;;;0.53;0.53;;;7.30;99.90;;;;;;5070806;28;20709;-82
2022/11/19 08:46:07;;;;;;;0.40;0.40;;;7.50;99.90;;;;;;5083572;28;21113;-82
2022/11/19 08:48:34;;;;;;;0.50;0.50;;;7.40;99.90;;;;;;5077505;28;20629;-82
2022/11/19 08:51:04;;;;;;;0.30;0.30;;;7.50;99.90;;;;;;5070129;28;20725;-82
2022/11/19 08:53:31;;;;;;;1.37;0.70;;;7.30;99.90;;;;;;5085359;28;21066;-82
2022/11/19 08:55:58;;;;;;;1.27;0.80;;;7.40;99.90;;;;;;5083187;28;21827;-82
2022/11/19 08:58:25;;;;;;;0.50;0.50;;;7.50;99.90;;;;;;5080094;28;20636;-82
2022/11/19 09:00:52;;;;;;;1.23;0.57;;;;;;;;;;5068121;28;20713;-82
2022/11/19 09:03:19;;;;;;;0.70;0.70;;;7.60;99.90;;;;;;5083607;28;21038;-82
2022/11/19 09:05:45;;;;;;;0.40;0.30;;;7.60;99.90;;;;;;5086763;28;20628;-82
2022/11/19 09:08:14;;;;;;;0.80;0.80;;;7.60;99.90;;;;;;5083615;28;20622;-82
2022/11/19 09:10:40;;;;;;;0.87;0.87;;;7.60;99.90;;;;;;5075072;28;20651;-81
2022/11/19 09:13:07;;;;;;;0.40;0.40;;;7.00;99.90;;;;;;5086398;28;21281;-81
2022/11/19 09:15:35;;;;;;;0.73;0.67;;;7.70;99.90;;;;;;5079995;28;21282;-81
2022/11/19 09:18:02;;;;;;;0.67;0.67;;;7.80;99.90;;;;;;5081547;28;20658;-81
2022/11/19 09:20:28;;;;;;;0.40;0.40;;;7.80;99.90;;;;;;5086145;28;20620;-82
2022/11/19 09:22:55;;;;;;;0.57;0.43;;;7.90;99.90;;;;;;5068452;28;21296;-82
2022/11/19 09:25:23;;;;;;;0.50;0.50;;;8.00;99.90;;;;;;5083902;28;20655;-82
2022/11/19 09:27:50;;;;;;;0.40;0.30;;;8.00;99.90;;;;;;5084373;28;20764;-82
2022/11/19 09:30:17;;;;;;;0.50;0.50;;;8.10;99.90;;;;;;5082817;28;21193;-82
2022/11/19 09:32:44;;;;;;;0.30;0.20;;;8.10;99.90;;;;;;5078196;28;20657;-82
2022/11/19 09:35:11;;;;;;;0.40;0.33;;;8.10;99.90;;;;;;5082346;28;20627;-82
2022/11/19 09:37:37;;;;;;;1.20;0.80;;;8.20;99.90;;;;;;5073789;28;20705;-81
2022/11/19 09:40:07;;;;;;;1.37;0.77;;;8.30;99.90;;;;;;5068930;28;20963;-81
2022/11/19 09:42:44;;;;;;;0.60;0.60;;;8.20;99.90;;;;;;5073987;28;20633;-82
2022/11/19 09:45:19;;;;;;;0.90;0.90;;;8.20;99.90;;;;;;5082190;28;20727;-82
2022/11/19 09:48:02;;;;;;;0.90;0.63;;;8.10;99.90;;;;;;5068203;28;20728;-82
2022/11/19 09:50:33;;;;;;;0.30;0.20;;;8.20;99.90;;;;;;5068242;28;20986;-81
2022/11/19 09:53:06;;;;;;;0.50;0.47;;;8.20;99.90;;;;;;5079703;28;21033;-80
2022/11/19 09:55:36;;;;;;;1.50;1.40;;;8.20;99.90;;;;;;5071733;28;20637;-81
2022/11/19 09:58:07;;;;;;;0.53;0.40;;;8.30;99.90;;;;;;5084524;28;20660;-81
2022/11/19 10:00:34;;;;;;;0.50;0.33;;;8.30;99.90;;;;;;5081542;28;20628;-81
2022/11/19 10:03:02;;;;;;;0.77;0.57;;;8.30;99.90;;;;;;5072182;28;20720;-81
2022/11/19 10:05:36;;;;;;;0.50;0.50;;;8.30;99.90;;;;;;5088934;28;20632;-81
2022/11/19 10:08:21;;;;;;;0.77;0.60;;;8.40;99.90;;;;;;5075650;28;20632;-81
2022/11/19 10:10:58;;;;;;;0.60;0.60;;;8.50;99.90;;;;;;5069651;28;20626;-83
2022/11/19 10:13:47;;;;;;;0.80;0.73;;;8.40;99.90;;;;;;5070370;28;20675;-81
2022/11/19 10:16:27;;;;;;;1.17;0.63;;;8.60;99.90;;;;;;5076899;28;21176;-81
2022/11/19 10:19:05;;;;;;;0.87;0.60;;;8.50;99.90;;;;;;5087505;28;21055;-81
2022/11/19 10:21:42;;;;;;;0.93;0.63;;;8.40;99.90;;;;;;5071342;28;20636;-81
2022/11/19 10:24:17;;;;;;;1.03;0.70;;;8.40;99.90;;;;;;5076323;28;20743;-81
2022/11/19 10:26:50;;;;;;;0.70;0.63;;;8.40;99.90;;;;;;5077562;28;20631;-80
2022/11/19 10:29:21;;;;;;;0.57;0.43;;;8.40;99.90;;;;;;5072709;28;20639;-82
2022/11/19 10:31:50;;;;;;;0.57;0.30;;;8.30;99.90;;;;;;5069868;28;20621;-80
2022/11/19 10:34:22;;;;;;;2.13;1.87;;;8.50;99.90;;;;;;5078672;28;20799;-80
2022/11/19 10:36:55;;;;;;;0.63;0.60;;;8.30;99.90;;;;;;5074370;28;21238;-81
2022/11/19 10:39:29;;;;;;;0.83;0.83;;;8.40;99.90;;;;;;5073373;28;20719;-81
2022/11/19 10:41:59;;;;;;;0.70;0.70;;;8.60;99.90;;;;;;5084119;28;20629;-81
2022/11/19 10:44:40;;;;;;;0.80;0.80;;;8.50;99.90;;;;;;5074525;28;20736;-81
2022/11/19 10:47:10;;;;;;;0.90;0.80;;;8.50;99.90;;;;;;5078312;28;20616;-81
2022/11/19 10:49:40;;;;;;;0.60;0.60;;;8.50;99.90;;;;;;5088633;28;20632;-81
2022/11/19 10:52:14;;;;;;;2.17;0.90;;;8.60;99.90;;;;;;5079105;28;20632;-81
2022/11/19 10:54:41;;;;;;;0.70;0.70;;;8.60;99.90;;;;;;5081092;28;20625;-81
2022/11/19 10:57:15;;;;;;;0.70;0.70;;;8.60;99.90;;;;;;5076824;28;20628;-81
2022/11/19 10:59:44;;;;;;;0.73;0.60;;;8.50;99.90;;;;;;5086211;28;20656;-81
2022/11/19 11:02:21;;;;;;;0.63;0.50;;;8.40;99.90;;;;;;5087964;28;20626;-80
2022/11/19 11:05:17;;;;;;;1.00;0.90;;;8.80;99.90;;;;;;5083256;28;20632;-80
2022/11/19 11:07:55;;;;;;;2.77;0.50;;;8.50;99.90;;;;;;5040915;28;21061;-80
2022/11/19 11:10:34;;;;;;;1.10;1.10;;;8.60;99.90;;;;;;5077327;28;20632;-80
2022/11/19 11:16:04;;;;;;;1.00;0.90;;;8.50;99.90;;;;;;5086101;28;20621;-82
2022/11/19 11:18:32;;;;;;;0.60;0.60;;;8.50;99.90;;;;;;5080508;28;20610;-82
2022/11/19 11:20:59;;;;;;;1.63;0.87;;;8.50;99.90;;;;;;5072527;28;20634;-81
2022/11/19 11:23:28;;;;;;;0.40;0.40;;;8.50;99.90;;;;;;5088857;28;20620;-82
2022/11/19 11:26:03;;;;;;;1.70;0.73;;;8.60;99.90;;;;;;5068505;28;20637;-82
2022/11/19 11:28:30;;;;;;;1.13;0.60;;;8.60;99.90;;;;;;5076370;28;20632;-81
2022/11/19 11:31:00;;;;;;;0.60;0.60;;;8.30;99.90;;;;;;5088640;28;20701;-81
2022/11/19 11:33:30;;;;;;;0.90;0.90;;;8.50;99.90;;;;;;5072493;28;20760;-82
2022/11/19 11:36:01;;;;;;;0.80;0.67;;;8.60;99.90;;;;;;5087640;28;21203;-81
2022/11/19 11:38:29;;;;;;;1.10;0.97;;;8.50;99.90;;;;;;5081518;28;20705;-80
2022/11/19 11:41:01;;;;;;;0.63;0.50;;;8.60;99.90;;;;;;5072396;28;20622;-80
2022/11/19 11:43:31;;;;;;;0.53;0.53;;;8.60;99.90;;;;;;5088027;28;21069;-81
2022/11/19 11:46:02;;;;;;;0.83;0.40;;;8.60;99.90;;;;;;5088045;28;20612;-81
2022/11/19 11:48:34;;;;;;;0.70;0.70;;;8.40;99.90;;;;;;5087743;28;20625;-81
2022/11/19 11:51:01;;;;;;;0.30;0.23;;;8.40;99.90;;;;;;5084178;28;21243;-82
2022/11/19 11:53:31;;;;;;;0.60;0.60;;;8.40;99.90;;;;;;5071226;28;20670;-81
2022/11/19 11:55:59;;;;;;;1.40;1.30;;;8.40;99.90;;;;;;5081985;28;20654;-81
2022/11/19 11:58:29;;;;;;;0.47;0.30;;;8.30;99.90;;;;;;5087245;28;20653;-81
2022/11/19 12:01:12;;;;;;;0.60;0.60;;;8.30;99.90;;;;;;5084041;28;20620;-83
2022/11/19 12:03:53;;;;;;;2.00;1.07;;;8.30;99.90;;;;;;5087959;28;21036;-82
2022/11/19 12:06:23;;;;;;;1.13;0.80;;;8.20;99.90;;;;;;5074223;28;20639;-82
2022/11/19 12:08:58;;;;;;;0.80;0.50;;;8.30;99.90;;;;;;5088422;28;20722;-81
2022/11/19 12:11:52;;;;;;;0.60;0.40;;;8.20;99.90;;;;;;5072044;28;20627;-83
2022/11/19 12:14:23;;;;;;;0.80;0.80;;;8.20;99.90;;;;;;5087130;28;21126;-81
2022/11/19 12:17:18;;;;;;;0.40;0.40;;;8.20;99.90;;;;;;5087088;28;20719;-82
2022/11/19 12:19:58;;;;;;;0.50;0.50;;;8.20;99.90;;;;;;5068241;28;20725;-82
2022/11/19 12:22:37;;;;;;;0.93;0.47;;;8.30;99.90;;;;;;5072389;28;20625;-82
2022/11/19 12:25:20;;;;;;;0.30;0.30;;;8.00;99.90;;;;;;5079880;28;21007;-83
2022/11/19 12:27:56;;;;;;;0.77;0.77;;;8.30;99.90;;;;;;5084546;28;20680;-82
2022/11/19 12:30:30;;;;;;;1.33;0.50;;;8.10;99.90;;;;;;5069626;28;20768;-82
2022/11/19 12:33:19;;;;;;;2.20;0.70;;;8.30;99.90;;;;;;5083952;28;20769;-81
2022/11/19 12:35:56;;;;;;;0.83;0.70;;;8.30;99.90;;;;;;5086086;28;20628;-81
2022/11/19 12:38:37;;;;;;;0.93;0.63;;;8.20;99.90;;;;;;5070717;28;20621;-80
2022/11/19 12:41:29;;;;;;;0.43;0.43;;;8.40;99.90;;;;;;5074669;28;20720;-80
2022/11/19 12:43:58;;;;;;;0.40;0.40;;;8.20;99.90;;;;;;5073947;28;21198;-81
2022/11/19 12:46:43;;;;;;;0.40;0.30;;;8.20;99.90;;;;;;5080108;28;20778;-80
2022/11/19 12:49:29;;;;;;;0.80;0.60;;;8.40;99.90;;;;;;5085384;28;22237;-80
2022/11/19 12:52:02;;;;;;;0.50;0.47;;;8.20;99.90;;;;;;5080733;28;20631;-80
2022/11/19 12:54:43;;;;;;;0.40;0.30;;;8.10;99.90;;;;;;5068777;28;20722;-80
2022/11/19 12:57:22;;;;;;;0.43;0.30;;;8.20;99.90;;;;;;5075372;28;20633;-80
2022/11/19 13:00:12;;;;;;;0.30;0.30;;;8.10;99.90;;;;;;5077778;28;21042;-80
2022/11/19 13:02:47;;;;;;;0.53;0.53;;;8.00;99.90;;;;;;5063427;28;20648;-81
2022/11/19 13:05:19;;;;;;;0.50;0.40;;;8.00;99.90;;;;;;5086351;28;20626;-80
2022/11/19 13:07:52;;;;;;;0.53;0.40;;;8.00;99.90;;;;;;5080868;28;20691;-80
2022/11/19 13:10:23;;;;;;;0.30;0.30;;;8.00;99.90;;;;;;5075682;28;21202;-80
2022/11/19 13:12:53;;;;;;;0.60;0.50;;;8.00;99.90;;;;;;5086299;28;20720;-81
2022/11/19 13:15:24;;;;;;;0.70;0.70;;;8.00;99.90;;;;;;5085904;28;20635;-81
2022/11/19 13:17:53;;;;;;;1.27;0.97;;;8.00;99.90;;;;;;5086778;28;20706;-81
2022/11/19 13:20:27;;;;;;;0.83;0.60;;;7.70;99.90;;;;;;5085256;28;20616;-81
2022/11/19 13:22:58;;;;;;;0.30;0.20;;;8.00;99.90;;;;;;5083383;28;20663;-81
2022/11/19 13:25:28;;;;;;;0.70;0.70;;;8.00;99.90;;;;;;5084508;28;21080;-81
2022/11/19 13:27:57;;;;;;;0.40;0.40;;;8.00;99.90;;;;;;5077617;28;20667;-81
2022/11/19 13:30:26;;;;;;;0.93;0.73;;;8.00;99.90;;;;;;5086922;28;20623;-81
2022/11/19 13:33:02;;;;;;;0.60;0.60;;;8.00;99.90;;;;;;5071917;28;20673;-81